Ever Diamond — 3FQS8 — position and weather

sailwx.info

Track history (hours):
 
Tides and Currents Weather Stations Pressure Air Temp Water Temp Dewpoint Dewpoint Depression Visibility Wind Speed Wind Dir Waves Ship Positions

Ever Diamond

Last reported at 2016-Nov-14 23:36 UTC. Time now 2016-Dec-02 18:05 UTC.
Position N 01°17' E 103°46'.
Warning: this ship's position is 17 days out of date.

Type: Ship (hazmat cat D). MMSI: 354893000.

Date/timePositionNaut miles runAvg speedWind from/ knotsBaromVisibWave heightAir tempDewpointWater temp
2016-Nov-14 23:36N 01°17' E 103°46'0 0.0
2016-Nov-14 16:09N 01°17' E 103°46'0 0.0
2016-Nov-14 11:09N 01°17' E 103°46'11 4.0
2016-Nov-14 08:30N 01°15' E 103°56'  
2016-Nov-09 08:33N 01°11' E 103°51'7 7.4
2016-Nov-09 07:33N 01°17' E 103°46'0 0.2
2016-Nov-09 05:33N 01°17' E 103°46'0 0.1
2016-Nov-09 04:33N 01°17' E 103°46'0 0.0
2016-Nov-09 02:27N 01°17' E 103°46'0 0.0
2016-Nov-08 23:27N 01°17' E 103°46'0 0.1
2016-Nov-08 22:33N 01°17' E 103°46'0 0.1
2016-Nov-08 21:33N 01°17' E 103°46'0 0.0
2016-Nov-08 20:33N 01°17' E 103°46'0 0.1
2016-Nov-08 19:33N 01°17' E 103°46'3 2.6
2016-Nov-08 18:33N 01°15' E 103°45'9 8.8
2016-Nov-08 17:32N 01°13' E 103°36'68 8.3
2016-Nov-08 09:20N 01°44' E 102°36'  
Track history (hours):
 
Tides and Currents Weather Stations Pressure Air Temp Water Temp Dewpoint Dewpoint Depression Visibility Wind Speed Wind Dir Waves Ship Positions

Ever Diamond

Last reported at 2016-Nov-14 23:36 UTC. Time now 2016-Dec-02 18:05 UTC.
Position N 01°17' E 103°46'.
Warning: this ship's position is 17 days out of date.

Type: Ship (hazmat cat D). MMSI: 354893000.

Date/timePositionNaut miles runAvg speedWind from/ knotsBaromVisibWave heightAir tempDewpointWater temp
2016-Nov-14 23:36N 01°17' E 103°46'0 0.0
2016-Nov-14 16:09N 01°17' E 103°46'0 0.0
2016-Nov-14 11:09N 01°17' E 103°46'11 4.0
2016-Nov-14 08:30N 01°15' E 103°56'  
2016-Nov-09 08:33N 01°11' E 103°51'7 7.4
2016-Nov-09 07:33N 01°17' E 103°46'0 0.2
2016-Nov-09 05:33N 01°17' E 103°46'0 0.1
2016-Nov-09 04:33N 01°17' E 103°46'0 0.0
2016-Nov-09 02:27N 01°17' E 103°46'0 0.0
2016-Nov-08 23:27N 01°17' E 103°46'0 0.1
2016-Nov-08 22:33N 01°17' E 103°46'0 0.1
2016-Nov-08 21:33N 01°17' E 103°46'0 0.0
2016-Nov-08 20:33N 01°17' E 103°46'0 0.1
2016-Nov-08 19:33N 01°17' E 103°46'3 2.6
2016-Nov-08 18:33N 01°15' E 103°45'9 8.8
2016-Nov-08 17:32N 01°13' E 103°36'68 8.3
2016-Nov-08 09:20N 01°44' E 102°36'  

Dump ship's entire track history